LEAM Airport Information

Runway Information
Runway 08 Length 10499 ft width 148 ft
Elevation 26 ft Threshold 492 ft Heading 73
Runway 26 Length 10499 ft Width 148 ft
Elevation 70 ft Threshold 0 ft Heading 253
Airport Frequencies
Type APP Name APP Frequency 118.35 MHZ
Type GND Name GND Frequency 121.7 MHZ
Type TWR Name TWR Frequency 118.35 MHZ
Airport Navaids
Type NDB Name Almeria Frequency 284 KHZ
Type NDB Name Almeria Frequency 310 KHZ
Type VOR-DME Name Almeria Frequency 114100 KHZ
Airport Weather Information & NOTAM
ADDS - METARS form results

(1918 UTC 25 June 2018)
 
METAR text: LEAM 251900Z 13005KT 100V170 CAVOK 24/19 Q1015
Conditions at: LEAM (ALMERIA AIRPORT , ES) observed 1900 UTC 25 June 2018
Temperature: 24.0°C (75°F)
Dewpoint: 19.0°C (66°F) [RH = 74%]
Pressure (altimeter): 29.97 inches Hg (1015.0 mb)
Winds: from the SE (130 degrees) at 6 MPH (5 knots; 2.6 m/s)
Visibility: 6 or more miles (10+ km)
Ceiling: ceiling and visibility are OK
Clouds: unknown
Weather: no significant weather observed at this time

METAR text: LEAM 251830Z 14004KT 110V190 9999 FEW020 24/19 Q1015
Conditions at: LEAM (ALMERIA AIRPORT , ES) observed 1830 UTC 25 June 2018
Temperature: 24.0°C (75°F)
Dewpoint: 19.0°C (66°F) [RH = 74%]
Pressure (altimeter): 29.97 inches Hg (1015.0 mb)
Winds: from the SE (140 degrees) at 5 MPH (4 knots; 2.1 m/s)
Visibility: 6 or more miles (10+ km)
Ceiling: at least 12,000 feet AGL
Clouds: few clouds at 2000 feet AGL
Weather: no significant weather observed at this time